createdAt,value
2023-03-13T00:00:14.320Z,8.21
2023-03-13T00:02:40.694Z,8.20
2023-03-13T00:05:07.100Z,8.18
2023-03-13T00:07:33.428Z,8.15
2023-03-13T00:09:59.788Z,8.15
2023-03-13T00:12:26.188Z,8.14
2023-03-13T00:14:52.510Z,8.13
2023-03-13T00:17:18.866Z,8.12
2023-03-13T00:19:45.192Z,8.12
2023-03-13T00:22:11.582Z,8.09
2023-03-13T00:24:37.960Z,8.08
2023-03-13T00:27:06.608Z,8.08
2023-03-13T00:29:32.923Z,8.07
2023-03-13T00:31:59.429Z,8.05
2023-03-13T00:34:25.723Z,8.04
2023-03-13T00:36:52.069Z,8.02
2023-03-13T00:39:18.423Z,8.00
2023-03-13T00:41:44.814Z,8.00
2023-03-13T00:44:11.125Z,8.00
2023-03-13T00:46:37.594Z,7.98
2023-03-13T00:49:03.824Z,7.95
2023-03-13T00:51:30.189Z,7.93
2023-03-13T00:53:58.276Z,7.92
2023-03-13T00:56:22.930Z,7.91
2023-03-13T00:58:49.369Z,7.91
2023-03-13T01:01:15.712Z,7.87
2023-03-13T01:03:42.117Z,7.86
2023-03-13T01:06:08.464Z,7.85
2023-03-13T01:08:34.851Z,7.84
2023-03-13T01:11:01.204Z,7.81
2023-03-13T01:13:27.772Z,7.80
2023-03-13T01:15:54.165Z,7.78
2023-03-13T01:18:20.467Z,7.78
2023-03-13T01:20:47.115Z,7.78
2023-03-13T01:23:13.496Z,7.76
2023-03-13T01:25:39.983Z,7.72
2023-03-13T01:28:06.289Z,7.72
2023-03-13T01:30:32.633Z,7.71
2023-03-13T01:32:59.034Z,7.71
2023-03-13T01:35:25.393Z,7.68
2023-03-13T01:37:51.668Z,7.67
2023-03-13T01:40:18.021Z,7.64
2023-03-13T01:42:44.412Z,7.63
2023-03-13T01:45:10.720Z,7.64
2023-03-13T01:47:37.060Z,7.63
2023-03-13T01:50:03.441Z,7.61
2023-03-13T01:52:30.522Z,7.58
2023-03-13T01:54:56.852Z,7.55
2023-03-13T01:57:23.182Z,7.53
2023-03-13T01:59:49.566Z,7.52
2023-03-13T02:02:15.883Z,7.50
2023-03-13T02:04:42.373Z,7.47
2023-03-13T02:07:08.738Z,7.44
2023-03-13T02:09:35.112Z,7.41
2023-03-13T02:12:01.432Z,7.40
2023-03-13T02:14:27.794Z,7.35
2023-03-13T02:16:54.129Z,7.31
2023-03-13T02:19:20.512Z,7.27
2023-03-13T02:21:46.841Z,7.25
2023-03-13T02:24:13.230Z,7.21
2023-03-13T02:26:39.545Z,7.19
2023-03-13T02:29:05.902Z,7.17
2023-03-13T02:31:32.303Z,7.14
2023-03-13T02:33:58.657Z,7.11
2023-03-13T02:36:25.009Z,7.11
2023-03-13T02:38:51.313Z,7.09
2023-03-13T02:41:17.673Z,7.07
2023-03-13T02:43:44.017Z,7.09
2023-03-13T02:46:10.354Z,7.06
2023-03-13T02:48:36.685Z,7.04
2023-03-13T02:51:03.052Z,7.01
2023-03-13T02:53:29.391Z,7.02
2023-03-13T02:55:57.949Z,7.03
2023-03-13T02:58:24.270Z,6.99
2023-03-13T03:00:50.683Z,6.97
2023-03-13T03:03:16.978Z,6.96
2023-03-13T03:05:43.265Z,6.96
2023-03-13T03:08:09.644Z,6.96
2023-03-13T03:10:36.082Z,6.96
2023-03-13T03:13:02.388Z,6.93
2023-03-13T03:15:28.773Z,6.92
2023-03-13T03:17:55.124Z,6.92
2023-03-13T03:20:21.487Z,6.87
2023-03-13T03:22:47.822Z,6.86
2023-03-13T03:25:14.141Z,6.83
2023-03-13T03:27:40.485Z,6.83
2023-03-13T03:30:06.826Z,6.81
2023-03-13T03:32:33.252Z,6.81
2023-03-13T03:34:59.555Z,6.80
2023-03-13T03:37:25.900Z,6.79
2023-03-13T03:39:52.230Z,6.77
2023-03-13T03:42:18.623Z,6.79
2023-03-13T03:44:44.971Z,6.77
2023-03-13T03:47:11.412Z,6.75
2023-03-13T03:49:37.714Z,6.75
2023-03-13T03:52:04.053Z,6.71
2023-03-13T03:54:30.425Z,6.72
2023-03-13T03:56:56.975Z,6.70
2023-03-13T03:59:23.357Z,6.68
2023-03-13T04:01:49.730Z,6.66
2023-03-13T04:04:16.041Z,6.65
2023-03-13T04:06:42.414Z,6.65
2023-03-13T04:09:08.779Z,6.65
2023-03-13T04:11:35.126Z,6.62
2023-03-13T04:14:01.493Z,6.63
2023-03-13T04:16:27.896Z,6.60
2023-03-13T04:18:54.177Z,6.59
2023-03-13T04:21:20.533Z,6.56
2023-03-13T04:23:46.842Z,6.55
2023-03-13T04:26:13.228Z,6.56
2023-03-13T04:28:39.546Z,6.55
2023-03-13T04:31:05.958Z,6.54
2023-03-13T04:33:32.275Z,6.52
2023-03-13T04:35:58.683Z,6.51
2023-03-13T04:38:24.983Z,6.52
2023-03-13T04:40:51.353Z,6.50
2023-03-13T04:43:17.815Z,6.50
2023-03-13T04:45:44.187Z,6.49
2023-03-13T04:48:10.525Z,6.50
2023-03-13T04:50:36.914Z,6.52
2023-03-13T04:53:03.226Z,6.57
2023-03-13T04:55:29.680Z,6.62
2023-03-13T04:57:56.035Z,6.70
2023-03-13T05:00:22.354Z,6.81
2023-03-13T05:02:48.782Z,6.93
2023-03-13T05:05:15.250Z,7.06
2023-03-13T05:07:41.539Z,7.23
2023-03-13T05:10:07.918Z,7.41
2023-03-13T05:12:34.263Z,7.60
2023-03-13T05:15:00.649Z,7.81
2023-03-13T05:17:27.056Z,8.00
2023-03-13T05:19:53.390Z,8.20
2023-03-13T05:22:19.746Z,8.39
2023-03-13T05:24:46.110Z,8.60
2023-03-13T05:27:12.474Z,8.81
2023-03-13T05:29:38.864Z,8.99
2023-03-13T05:32:05.260Z,9.16
2023-03-13T05:34:31.646Z,9.36
2023-03-13T05:36:57.979Z,9.60
2023-03-13T05:39:24.365Z,9.74
2023-03-13T05:41:50.720Z,9.39
2023-03-13T05:44:17.099Z,9.10
2023-03-13T05:46:43.477Z,8.92
2023-03-13T05:49:09.766Z,8.79
2023-03-13T05:51:36.308Z,8.71
2023-03-13T05:54:02.684Z,8.68
2023-03-13T05:56:29.037Z,8.70
2023-03-13T05:58:55.393Z,8.73
2023-03-13T06:01:21.726Z,8.77
2023-03-13T06:03:48.195Z,8.84
2023-03-13T06:06:14.494Z,8.93
2023-03-13T06:08:40.816Z,9.03
2023-03-13T06:11:07.152Z,9.13
2023-03-13T06:13:33.685Z,9.25
2023-03-13T06:16:00.208Z,9.33
2023-03-13T06:18:26.518Z,9.37
2023-03-13T06:20:52.903Z,9.46
2023-03-13T06:23:19.271Z,9.60
2023-03-13T06:25:45.656Z,9.73
2023-03-13T06:28:11.977Z,9.85
2023-03-13T06:30:38.379Z,10.01
2023-03-13T06:33:04.859Z,10.18
2023-03-13T06:35:31.187Z,10.31
2023-03-13T06:37:57.462Z,10.52
2023-03-13T06:40:23.851Z,10.68
2023-03-13T06:42:50.177Z,10.61
2023-03-13T06:45:16.599Z,10.60
2023-03-13T06:47:45.325Z,10.62
2023-03-13T06:50:11.670Z,10.78
2023-03-13T06:52:43.918Z,10.95
2023-03-13T06:55:04.393Z,11.14
2023-03-13T06:57:30.718Z,11.78
2023-03-13T06:59:57.061Z,12.67
2023-03-13T07:02:23.416Z,13.30
2023-03-13T07:04:49.757Z,13.85
2023-03-13T07:07:26.035Z,14.28
2023-03-13T07:09:42.436Z,14.67
2023-03-13T07:12:08.801Z,15.07
2023-03-13T07:14:35.148Z,15.36
2023-03-13T07:17:01.781Z,15.57
2023-03-13T07:19:31.253Z,15.77
2023-03-13T07:21:57.578Z,15.35
2023-03-13T07:24:23.957Z,14.94
2023-03-13T07:27:04.632Z,14.72
2023-03-13T07:29:16.651Z,14.73
2023-03-13T07:31:43.538Z,14.71
2023-03-13T07:34:09.801Z,14.69
2023-03-13T07:36:36.155Z,14.66
2023-03-13T07:39:02.483Z,14.66
2023-03-13T07:41:28.881Z,14.73
2023-03-13T07:43:55.224Z,15.03
2023-03-13T07:46:21.771Z,15.12
2023-03-13T07:48:48.022Z,15.22
2023-03-13T07:51:14.734Z,15.43
2023-03-13T07:53:40.949Z,15.59
2023-03-13T07:56:07.685Z,15.71
2023-03-13T07:58:33.562Z,15.79
2023-03-13T08:01:02.537Z,15.89
2023-03-13T08:03:28.971Z,16.05
2023-03-13T08:05:55.284Z,16.22
2023-03-13T08:08:21.746Z,16.38
2023-03-13T08:10:50.527Z,16.56
2023-03-13T08:13:16.862Z,16.72
2023-03-13T08:15:43.341Z,16.94
2023-03-13T08:18:09.732Z,17.22
2023-03-13T08:20:36.053Z,17.29
2023-03-13T08:23:02.409Z,17.27
2023-03-13T08:25:28.754Z,17.37
2023-03-13T08:27:57.284Z,17.52
2023-03-13T08:30:23.676Z,17.63
2023-03-13T08:32:50.156Z,17.81
2023-03-13T08:35:16.466Z,17.91
2023-03-13T08:37:42.847Z,18.01
2023-03-13T08:40:09.150Z,18.13
2023-03-13T08:42:35.815Z,18.26
2023-03-13T08:45:03.256Z,18.50
2023-03-13T08:47:29.607Z,18.69
2023-03-13T08:49:56.025Z,18.74
2023-03-13T08:52:24.794Z,18.79
2023-03-13T08:54:52.415Z,18.96
2023-03-13T08:57:18.782Z,19.17
2023-03-13T08:59:45.171Z,19.34
2023-03-13T09:02:11.600Z,19.46
2023-03-13T09:04:37.905Z,19.58
2023-03-13T09:07:04.292Z,19.64
2023-03-13T09:09:30.753Z,19.84
2023-03-13T09:11:57.133Z,19.95
2023-03-13T09:14:23.458Z,20.08
2023-03-13T09:16:49.846Z,20.28
2023-03-13T09:19:16.192Z,20.45
2023-03-13T09:21:42.571Z,20.54
2023-03-13T09:24:09.253Z,20.65
2023-03-13T09:26:35.566Z,20.82
2023-03-13T09:29:04.112Z,20.94
2023-03-13T09:31:30.672Z,21.05
2023-03-13T09:33:56.893Z,21.19
2023-03-13T09:36:23.366Z,21.27
2023-03-13T09:38:49.605Z,21.33
2023-03-13T09:41:15.995Z,21.51
2023-03-13T09:43:42.316Z,21.73
2023-03-13T09:46:08.717Z,21.86
2023-03-13T09:48:35.209Z,22.06
2023-03-13T09:51:01.506Z,22.26
2023-03-13T09:53:27.836Z,22.39
2023-03-13T09:55:54.227Z,22.48
2023-03-13T09:58:20.561Z,22.46
2023-03-13T10:00:46.924Z,22.34
2023-03-13T10:03:13.555Z,22.44
2023-03-13T10:05:39.951Z,22.61
2023-03-13T10:08:06.269Z,22.70
2023-03-13T10:10:32.639Z,22.61
2023-03-13T10:12:59.005Z,22.71
2023-03-13T10:15:25.352Z,22.87
2023-03-13T10:17:51.694Z,23.07
2023-03-13T10:20:18.507Z,23.21
2023-03-13T10:22:44.744Z,23.30
2023-03-13T10:25:11.131Z,23.31
2023-03-13T10:27:37.454Z,23.40
2023-03-13T10:30:03.824Z,23.51
2023-03-13T10:32:30.267Z,23.53
2023-03-13T10:34:56.621Z,23.71
2023-03-13T10:37:23.000Z,23.80
2023-03-13T10:39:49.454Z,23.89
2023-03-13T10:42:15.769Z,23.90
2023-03-13T10:44:42.177Z,23.83
2023-03-13T10:47:08.529Z,23.76
2023-03-13T10:49:34.886Z,23.85
2023-03-13T10:52:01.203Z,23.94
2023-03-13T10:54:27.643Z,24.06
2023-03-13T10:56:53.991Z,24.40
2023-03-13T10:59:20.358Z,24.70
2023-03-13T11:01:46.724Z,24.65
2023-03-13T11:04:13.060Z,24.23
2023-03-13T11:06:39.404Z,23.98
2023-03-13T11:09:05.848Z,23.86
2023-03-13T11:11:32.211Z,23.92
2023-03-13T11:13:58.584Z,24.32
2023-03-13T11:16:25.153Z,24.73
2023-03-13T11:18:51.377Z,25.04
2023-03-13T11:21:18.655Z,25.17
2023-03-13T11:23:44.141Z,25.16
2023-03-13T11:26:10.464Z,25.29
2023-03-13T11:28:36.862Z,25.36
2023-03-13T11:31:03.264Z,25.27
2023-03-13T11:33:29.949Z,24.74
2023-03-13T11:35:56.615Z,24.39
2023-03-13T11:38:22.996Z,24.48
2023-03-13T11:40:49.419Z,24.69
2023-03-13T11:43:25.154Z,24.93
2023-03-13T11:45:42.179Z,25.06
2023-03-13T11:48:08.476Z,25.07
2023-03-13T11:50:34.848Z,25.06
2023-03-13T11:53:01.245Z,25.06
2023-03-13T11:55:27.561Z,24.98
2023-03-13T11:57:54.006Z,24.90
2023-03-13T12:00:20.381Z,24.90
2023-03-13T12:02:46.781Z,24.91
2023-03-13T12:05:13.125Z,24.97
2023-03-13T12:07:39.450Z,24.81
2023-03-13T12:10:05.778Z,24.51
2023-03-13T12:12:32.122Z,24.30
2023-03-13T12:14:58.516Z,24.15
2023-03-13T12:17:24.944Z,24.15
2023-03-13T12:19:51.254Z,24.09
2023-03-13T12:22:17.656Z,24.03
2023-03-13T12:24:44.308Z,23.95
2023-03-13T12:27:11.783Z,23.96
2023-03-13T12:29:38.116Z,24.02
2023-03-13T12:32:04.500Z,23.95
2023-03-13T12:34:31.169Z,23.86
2023-03-13T12:36:57.601Z,23.88
2023-03-13T12:39:23.932Z,23.88
2023-03-13T12:41:50.316Z,23.59
2023-03-13T12:44:16.672Z,23.32
2023-03-13T12:46:43.189Z,23.10
2023-03-13T12:49:09.722Z,23.17
2023-03-13T12:51:36.056Z,23.13
2023-03-13T12:54:02.449Z,23.16
2023-03-13T12:56:28.808Z,23.18
2023-03-13T12:58:55.165Z,23.08
2023-03-13T13:01:21.594Z,23.01
2023-03-13T13:03:47.895Z,23.03
2023-03-13T13:06:14.656Z,22.96
2023-03-13T13:08:40.994Z,22.91
2023-03-13T13:11:07.337Z,22.87
2023-03-13T13:13:33.718Z,22.77
2023-03-13T13:16:02.576Z,22.66
2023-03-13T13:18:28.860Z,22.52
2023-03-13T13:20:55.231Z,22.49
2023-03-13T13:23:21.680Z,22.50
2023-03-13T13:25:48.030Z,22.43
2023-03-13T13:28:14.413Z,22.32
2023-03-13T13:30:40.824Z,22.14
2023-03-13T13:33:09.091Z,22.07
2023-03-13T13:35:33.658Z,21.89
2023-03-13T13:38:00.041Z,21.74
2023-03-13T13:40:26.910Z,21.57
2023-03-13T13:42:53.313Z,21.38
2023-03-13T13:45:19.666Z,21.22
2023-03-13T13:47:46.130Z,21.11
2023-03-13T13:50:12.550Z,20.95
2023-03-13T13:52:38.885Z,20.81
2023-03-13T13:55:05.409Z,20.65
2023-03-13T13:57:31.795Z,20.54
2023-03-13T13:59:58.173Z,20.43
2023-03-13T14:02:24.550Z,20.31
2023-03-13T14:04:50.944Z,20.18
2023-03-13T14:07:17.272Z,20.05
2023-03-13T14:09:43.620Z,19.92
2023-03-13T14:12:10.089Z,19.79
2023-03-13T14:14:36.522Z,19.64
2023-03-13T14:17:02.905Z,19.50
2023-03-13T14:19:29.288Z,19.47
2023-03-13T14:21:55.648Z,19.46
2023-03-13T14:24:21.992Z,19.40
2023-03-13T14:26:48.326Z,19.44
2023-03-13T14:29:14.679Z,19.53
2023-03-13T14:31:41.256Z,19.61
2023-03-13T14:34:07.575Z,19.60
2023-03-13T14:36:33.969Z,19.61
2023-03-13T14:39:00.329Z,19.51
2023-03-13T14:41:26.670Z,19.44
2023-03-13T14:43:53.077Z,19.40
2023-03-13T14:46:19.521Z,19.51
2023-03-13T14:48:45.829Z,19.64
2023-03-13T14:51:16.042Z,19.65
2023-03-13T14:53:38.558Z,19.64
2023-03-13T14:56:04.924Z,19.61
2023-03-13T14:58:31.300Z,19.52
2023-03-13T15:00:57.673Z,19.26
2023-03-13T15:03:23.985Z,18.97
2023-03-13T15:05:50.350Z,18.68
2023-03-13T15:08:16.739Z,18.45
2023-03-13T15:10:43.086Z,18.21
2023-03-13T15:13:09.468Z,18.09
2023-03-13T15:15:35.805Z,17.98
2023-03-13T15:18:02.209Z,17.91
2023-03-13T15:20:28.540Z,17.84
2023-03-13T15:22:54.892Z,17.73
2023-03-13T15:25:21.274Z,17.63
2023-03-13T15:27:47.659Z,17.58
2023-03-13T15:30:14.034Z,17.56
2023-03-13T15:32:40.499Z,17.50
2023-03-13T15:35:06.722Z,17.39
2023-03-13T15:37:33.116Z,17.27
2023-03-13T15:39:59.555Z,17.14
2023-03-13T15:42:26.016Z,17.06
2023-03-13T15:44:52.392Z,17.00
2023-03-13T15:47:18.747Z,16.93
2023-03-13T15:49:45.217Z,16.85
2023-03-13T15:52:11.562Z,16.78
2023-03-13T15:54:37.924Z,16.76
2023-03-13T15:57:04.246Z,16.72
2023-03-13T15:59:30.570Z,16.67
2023-03-13T16:01:56.938Z,16.61
2023-03-13T16:04:23.371Z,16.57
2023-03-13T16:06:49.797Z,16.47
2023-03-13T16:09:16.161Z,16.36
2023-03-13T16:11:42.539Z,16.29
2023-03-13T16:14:08.829Z,16.16
2023-03-13T16:16:37.595Z,16.09
2023-03-13T16:19:01.504Z,16.04
2023-03-13T16:21:27.850Z,16.05
2023-03-13T16:23:54.192Z,16.01
2023-03-13T16:26:20.586Z,15.94
2023-03-13T16:28:46.918Z,15.84
2023-03-13T16:31:13.417Z,15.80
2023-03-13T16:33:39.793Z,15.75
2023-03-13T16:36:06.194Z,15.73
2023-03-13T16:38:32.607Z,15.68
2023-03-13T16:40:58.937Z,15.59
2023-03-13T16:43:27.797Z,15.47
2023-03-13T16:45:54.556Z,15.29
2023-03-13T16:48:21.008Z,15.16
2023-03-13T16:50:47.379Z,15.10
2023-03-13T16:53:13.793Z,15.05
2023-03-13T16:55:40.199Z,14.99
2023-03-13T16:58:06.546Z,14.95
2023-03-13T17:00:33.069Z,14.90
2023-03-13T17:02:59.414Z,14.86
2023-03-13T17:05:25.720Z,14.84
2023-03-13T17:07:52.101Z,14.76
2023-03-13T17:10:18.483Z,14.72
2023-03-13T17:12:44.848Z,14.85
2023-03-13T17:15:11.240Z,15.00
2023-03-13T17:17:37.728Z,15.08
2023-03-13T17:20:04.100Z,15.07
2023-03-13T17:22:32.654Z,14.99
2023-03-13T17:24:59.022Z,14.89
2023-03-13T17:27:25.378Z,14.76
2023-03-13T17:29:51.758Z,14.66
2023-03-13T17:32:18.141Z,14.59
2023-03-13T17:34:46.690Z,14.54
2023-03-13T17:37:13.077Z,14.48
2023-03-13T17:39:39.481Z,14.40
2023-03-13T17:42:07.069Z,14.34
2023-03-13T17:44:33.568Z,14.27
2023-03-13T17:46:59.970Z,14.22
2023-03-13T17:49:26.301Z,14.17
2023-03-13T17:51:52.716Z,14.09
2023-03-13T17:54:19.084Z,14.06
2023-03-13T17:56:45.442Z,13.98
2023-03-13T17:59:11.865Z,13.95
2023-03-13T18:01:38.286Z,13.83
2023-03-13T18:04:04.817Z,13.77
2023-03-13T18:06:31.300Z,13.71
2023-03-13T18:08:57.614Z,13.67
2023-03-13T18:11:24.027Z,13.61
2023-03-13T18:13:50.363Z,13.55
2023-03-13T18:16:16.793Z,13.51
2023-03-13T18:18:43.113Z,13.47
2023-03-13T18:21:09.534Z,13.43
2023-03-13T18:23:39.040Z,13.38
2023-03-13T18:26:05.393Z,13.33
2023-03-13T18:28:31.764Z,13.29
2023-03-13T18:30:58.158Z,13.24
2023-03-13T18:33:24.592Z,13.20
2023-03-13T18:35:51.007Z,13.15
2023-03-13T18:38:17.296Z,13.11
2023-03-13T18:40:43.647Z,13.05
2023-03-13T18:43:10.010Z,13.01
2023-03-13T18:45:36.408Z,12.97
2023-03-13T18:48:02.681Z,12.92
2023-03-13T18:50:29.038Z,12.88
2023-03-13T18:52:55.500Z,12.83
2023-03-13T18:55:21.742Z,12.79
2023-03-13T18:57:48.230Z,12.75
2023-03-13T19:00:14.525Z,12.72
2023-03-13T19:02:42.217Z,12.68
2023-03-13T19:05:08.671Z,12.63
2023-03-13T19:07:35.021Z,12.56
2023-03-13T19:10:01.366Z,12.62
2023-03-13T19:12:27.716Z,12.78
2023-03-13T19:14:54.138Z,12.70
2023-03-13T19:17:22.712Z,12.61
2023-03-13T19:19:49.023Z,12.53
2023-03-13T19:22:15.384Z,12.45
2023-03-13T19:24:41.770Z,12.41
2023-03-13T19:27:08.125Z,12.34
2023-03-13T19:29:34.488Z,12.29
2023-03-13T19:32:01.192Z,12.22
2023-03-13T19:34:28.594Z,12.19
2023-03-13T19:36:55.265Z,12.15
2023-03-13T19:39:23.817Z,12.09
2023-03-13T19:41:50.138Z,12.05
2023-03-13T19:44:18.729Z,12.00
2023-03-13T19:46:45.094Z,11.96
2023-03-13T19:49:11.492Z,11.94
2023-03-13T19:51:39.315Z,11.90
2023-03-13T19:54:05.720Z,11.86
2023-03-13T19:56:32.133Z,11.83
2023-03-13T19:58:58.852Z,11.79
2023-03-13T20:01:25.294Z,11.76
2023-03-13T20:03:52.063Z,11.72
2023-03-13T20:06:18.405Z,11.69
2023-03-13T20:08:44.876Z,11.66
2023-03-13T20:11:11.284Z,11.61
2023-03-13T20:13:37.714Z,11.58
2023-03-13T20:16:04.156Z,11.55
2023-03-13T20:18:30.578Z,11.51
2023-03-13T20:20:57.153Z,11.50
2023-03-13T20:23:23.539Z,11.47
2023-03-13T20:25:49.909Z,11.43
2023-03-13T20:28:16.268Z,11.41
2023-03-13T20:30:42.756Z,11.39
2023-03-13T20:33:09.151Z,11.36
2023-03-13T20:35:35.510Z,11.33
2023-03-13T20:38:01.933Z,11.30
2023-03-13T20:40:29.434Z,11.27
2023-03-13T20:42:58.383Z,11.24
2023-03-13T20:45:23.260Z,11.21
2023-03-13T20:47:49.627Z,11.18
2023-03-13T20:50:17.471Z,11.15
2023-03-13T20:52:42.336Z,11.13
2023-03-13T20:55:08.743Z,11.09
2023-03-13T20:57:35.146Z,11.06
2023-03-13T21:00:01.474Z,11.02
2023-03-13T21:02:29.971Z,10.99
2023-03-13T21:04:56.409Z,10.96
2023-03-13T21:07:22.703Z,10.95
2023-03-13T21:09:49.028Z,10.91
2023-03-13T21:12:15.417Z,10.87
2023-03-13T21:14:44.231Z,10.85
2023-03-13T21:17:10.800Z,10.83
2023-03-13T21:19:38.342Z,10.79
2023-03-13T21:22:06.862Z,10.77
2023-03-13T21:24:34.197Z,10.75
2023-03-13T21:27:00.588Z,10.71
2023-03-13T21:29:26.913Z,10.70
2023-03-13T21:31:53.294Z,10.68
2023-03-13T21:34:19.583Z,10.67
2023-03-13T21:36:45.972Z,10.72
2023-03-13T21:39:13.365Z,10.79
2023-03-13T21:41:39.738Z,10.81
2023-03-13T21:44:06.062Z,10.76
2023-03-13T21:46:32.450Z,10.73
2023-03-13T21:48:58.725Z,10.68
2023-03-13T21:51:25.129Z,10.66
2023-03-13T21:53:51.439Z,10.63
2023-03-13T21:56:18.882Z,10.59
2023-03-13T21:58:45.203Z,10.55
2023-03-13T22:01:11.669Z,10.53
2023-03-13T22:03:37.957Z,10.50
2023-03-13T22:06:04.276Z,10.47
2023-03-13T22:08:30.634Z,10.43
2023-03-13T22:10:56.973Z,10.41
2023-03-13T22:13:23.349Z,10.38
2023-03-13T22:15:49.683Z,10.35
2023-03-13T22:18:16.056Z,10.33
2023-03-13T22:20:42.440Z,10.31
2023-03-13T22:23:08.734Z,10.30
2023-03-13T22:25:35.129Z,10.28
2023-03-13T22:28:01.492Z,10.26
2023-03-13T22:30:27.899Z,10.24
2023-03-13T22:32:54.344Z,10.22
2023-03-13T22:35:20.653Z,10.19
2023-03-13T22:37:46.969Z,10.17
2023-03-13T22:40:13.354Z,10.15
2023-03-13T22:42:39.684Z,10.14
2023-03-13T22:45:06.038Z,10.13
2023-03-13T22:47:32.446Z,10.11
2023-03-13T22:49:58.796Z,10.07
2023-03-13T22:52:25.134Z,10.06
2023-03-13T22:54:51.493Z,10.05
2023-03-13T22:57:17.813Z,10.02
2023-03-13T22:59:44.164Z,10.01
2023-03-13T23:02:10.487Z,9.98
2023-03-13T23:04:38.046Z,9.98
2023-03-13T23:07:04.362Z,9.95
2023-03-13T23:09:30.748Z,9.92
2023-03-13T23:11:57.101Z,9.89
2023-03-13T23:14:23.483Z,9.91
2023-03-13T23:16:49.802Z,9.88
2023-03-13T23:19:16.576Z,9.88
2023-03-13T23:21:42.941Z,9.86
2023-03-13T23:24:09.332Z,9.84
2023-03-13T23:26:35.685Z,9.84
2023-03-13T23:29:02.086Z,9.80
2023-03-13T23:31:28.780Z,9.77
2023-03-13T23:33:55.171Z,9.77
2023-03-13T23:36:21.509Z,9.76
2023-03-13T23:38:47.839Z,9.75
2023-03-13T23:41:14.216Z,9.72
2023-03-13T23:43:40.519Z,9.71
2023-03-13T23:46:06.865Z,9.70
2023-03-13T23:48:33.243Z,9.67
2023-03-13T23:50:59.610Z,9.65
2023-03-13T23:53:25.965Z,9.65
2023-03-13T23:55:52.294Z,9.63
2023-03-13T23:58:18.649Z,9.62
